Time;durP1;ratioP1;P1;durP2;ratioP2;P2;SDS_P1;SDS_P2;PMS_P1;PMS_P2;Temp;Humidity;BMP_temperature;BMP_pressure;BME280_temperature;BME280_humidity;BME280_pressure;Samples;Min_cycle;Max_cycle;Signal;HPM_P1;HPM_P2
2021/03/14 00:01:13;;;;;;;;;;;7.20;83.60;;;;;;5029355;28;19909;-70
2021/03/14 00:03:38;;;;;;;;;;;7.20;84.30;;;;;;5029561;28;19995;-69
2021/03/14 00:06:04;;;;;;;;;;;7.30;84.30;;;;;;5029168;28;19913;-70
2021/03/14 00:08:30;;;;;;;;;;;7.30;84.20;;;;;;5029205;28;19913;-70
2021/03/14 00:11:00;;;;;;;;;;;7.30;84.10;;;;;;5027849;28;19955;-70
2021/03/14 00:13:30;;;;;;;;;;;7.30;84.20;;;;;;5029398;28;19909;-70
2021/03/14 00:15:56;;;;;;;;;;;7.30;84.80;;;;;;5029108;28;20282;-69
2021/03/14 00:18:24;;;;;;;;;;;7.30;84.50;;;;;;5028723;28;19916;-69
2021/03/14 00:20:50;;;;;;;;;;;7.30;84.30;;;;;;5028184;28;19913;-69
2021/03/14 00:23:16;;;;;;;;;;;7.30;84.40;;;;;;5028875;28;20344;-70
2021/03/14 00:25:41;;;;;;;;;;;7.30;84.60;;;;;;5028447;28;20579;-71
2021/03/14 00:28:07;;;;;;;;;;;7.30;84.40;;;;;;5027835;28;19909;-70
2021/03/14 00:30:32;;;;;;;;;;;7.20;84.50;;;;;;5027245;28;19909;-70
2021/03/14 00:32:58;;;;;;;;;;;7.20;84.70;;;;;;5027722;28;20282;-70
2021/03/14 00:35:23;;;;;;;;;;;7.20;84.80;;;;;;5028511;28;20460;-70
2021/03/14 00:37:49;;;;;;;;;;;7.20;85.10;;;;;;5027306;28;19999;-69
2021/03/14 00:40:15;;;;;;;;;;;7.20;85.30;;;;;;5027235;28;19905;-70
2021/03/14 00:42:40;;;;;;;;;;;7.20;85.20;;;;;;5029030;28;19947;-70
2021/03/14 00:45:07;;;;;;;;;;;7.10;85.50;;;;;;5028254;28;20339;-69
2021/03/14 00:47:34;;;;;;;;;;;7.10;85.90;;;;;;5028787;28;20543;-69
2021/03/14 00:49:59;;;;;;;;;;;7.20;85.90;;;;;;5028266;28;19983;-69
2021/03/14 00:52:25;;;;;;;;;;;7.20;85.80;;;;;;5028340;28;20404;-70
2021/03/14 00:54:50;;;;;;;;;;;7.20;85.60;;;;;;5028271;28;19905;-70
2021/03/14 00:57:16;;;;;;;;;;;7.20;85.60;;;;;;5028503;28;19916;-70
2021/03/14 00:59:41;;;;;;;;;;;7.20;85.70;;;;;;5027127;28;19913;-72
2021/03/14 01:02:07;;;;;;;;;;;7.20;85.40;;;;;;5028667;28;19909;-72
2021/03/14 01:04:32;;;;;;;;;;;7.10;85.60;;;;;;5028158;28;19909;-71
2021/03/14 01:06:58;;;;;;;;;;;7.10;85.70;;;;;;5028023;28;20700;-71
2021/03/14 01:09:23;;;;;;;;;;;7.10;85.90;;;;;;5028387;28;19909;-70
2021/03/14 01:11:49;;;;;;;;;;;7.10;86.10;;;;;;5026538;28;19913;-71
2021/03/14 01:14:14;;;;;;;;;;;7.10;86.30;;;;;;5028200;28;19905;-71
2021/03/14 01:16:40;;;;;;;;;;;7.10;86.20;;;;;;5027934;28;20008;-71
2021/03/14 01:19:06;;;;;;;;;;;7.10;86.20;;;;;;5026186;28;19913;-71
2021/03/14 01:21:32;;;;;;;;;;;7.10;86.20;;;;;;5027804;28;19909;-71
2021/03/14 01:23:57;;;;;;;;;;;7.10;86.50;;;;;;5027645;28;19999;-71
2021/03/14 01:26:23;;;;;;;;;;;7.00;86.60;;;;;;5027611;28;20326;-71
2021/03/14 01:28:48;;;;;;;;;;;7.10;86.80;;;;;;5028041;28;20020;-71
2021/03/14 01:31:14;;;;;;;;;;;7.00;86.90;;;;;;5026511;28;19908;-71
2021/03/14 01:33:40;;;;;;;;;;;7.00;87.00;;;;;;5027634;28;19909;-71
2021/03/14 01:36:06;;;;;;;;;;;7.00;87.10;;;;;;5026525;28;19948;-70
2021/03/14 01:38:32;;;;;;;;;;;7.00;87.20;;;;;;5026200;28;20378;-71
2021/03/14 01:40:57;;;;;;;;;;;7.00;87.00;;;;;;5027246;28;19920;-71
2021/03/14 01:43:23;;;;;;;;;;;7.00;87.10;;;;;;5027728;28;19943;-71
2021/03/14 01:45:48;;;;;;;;;;;7.00;87.10;;;;;;5027310;28;19905;-70
2021/03/14 01:48:17;;;;;;;;;;;6.90;87.30;;;;;;5026450;28;20259;-71
2021/03/14 01:50:43;;;;;;;;;;;6.90;87.80;;;;;;5027018;28;20348;-71
2021/03/14 01:53:08;;;;;;;;;;;7.10;87.10;;;;;;5027269;28;20461;-71
2021/03/14 01:55:34;;;;;;;;;;;7.10;86.60;;;;;;5026112;28;20487;-69
2021/03/14 01:58:00;;;;;;;;;;;7.00;87.20;;;;;;5025711;28;19948;-71
2021/03/14 02:00:26;;;;;;;;;;;7.20;86.70;;;;;;5027388;28;20031;-72
2021/03/14 02:02:51;;;;;;;;;;;7.20;86.90;;;;;;5026076;28;19916;-71
2021/03/14 02:05:18;;;;;;;;;;;7.10;87.30;;;;;;5026573;28;19916;-71
2021/03/14 02:07:45;;;;;;;;;;;7.00;86.90;;;;;;5026770;28;20396;-71
2021/03/14 02:10:12;;;;;;;;;;;6.90;86.90;;;;;;5025450;28;19909;-71
2021/03/14 02:12:58;;;;;;;;;;;7.00;87.50;;;;;;5027069;28;19909;-72
2021/03/14 02:15:26;;;;;;;;;;;6.90;87.80;;;;;;5005512;28;20424;-71
2021/03/14 02:17:52;;;;;;;;;;;6.90;87.80;;;;;;5026898;28;19917;-71
2021/03/14 02:20:20;;;;;;;;;;;6.80;88.00;;;;;;5026344;28;19946;-71
2021/03/14 02:22:47;;;;;;;;;;;6.80;88.10;;;;;;5027192;28;19909;-71
2021/03/14 02:25:15;;;;;;;;;;;6.80;88.20;;;;;;5026623;28;19909;-71
2021/03/14 02:27:41;;;;;;;;;;;6.80;88.10;;;;;;5026858;28;19932;-71
2021/03/14 02:30:08;;;;;;;;;;;6.80;88.10;;;;;;5027057;28;19955;-71
2021/03/14 02:32:34;;;;;;;;;;;6.80;88.70;;;;;;5026443;28;19962;-71
2021/03/14 02:35:01;;;;;;;;;;;6.80;88.10;;;;;;5026522;28;19913;-71
2021/03/14 02:37:27;;;;;;;;;;;6.80;88.10;;;;;;5025359;28;19909;-70
2021/03/14 02:39:55;;;;;;;;;;;6.80;87.70;;;;;;5026392;28;19913;-71
2021/03/14 02:42:22;;;;;;;;;;;6.80;87.70;;;;;;5025438;28;19928;-71
2021/03/14 02:44:49;;;;;;;;;;;6.80;87.80;;;;;;5026413;28;19992;-70
2021/03/14 02:47:17;;;;;;;;;;;6.70;88.10;;;;;;5024755;28;19905;-69
2021/03/14 02:49:43;;;;;;;;;;;6.70;88.40;;;;;;5024736;28;20007;-71
2021/03/14 02:52:09;;;;;;;;;;;6.70;88.20;;;;;;5026322;28;20007;-70
2021/03/14 02:54:35;;;;;;;;;;;6.70;88.30;;;;;;5025405;28;19909;-71
2021/03/14 02:57:01;;;;;;;;;;;6.70;88.30;;;;;;5026517;28;20447;-70
2021/03/14 02:59:27;;;;;;;;;;;6.70;88.20;;;;;;5026683;28;19917;-70
2021/03/14 03:01:53;;;;;;;;;;;6.70;88.20;;;;;;5026276;28;20008;-70
2021/03/14 03:04:21;;;;;;;;;;;6.70;88.20;;;;;;5025387;28;20259;-70
2021/03/14 03:06:47;;;;;;;;;;;6.60;88.30;;;;;;5026318;28;19916;-71
2021/03/14 03:09:13;;;;;;;;;;;6.70;88.30;;;;;;5026582;28;19908;-71
2021/03/14 03:11:39;;;;;;;;;;;6.70;88.10;;;;;;5024784;28;19912;-70
2021/03/14 03:14:05;;;;;;;;;;;6.70;87.90;;;;;;5026744;28;19909;-70
2021/03/14 03:16:31;;;;;;;;;;;6.70;88.00;;;;;;5026079;28;19913;-69
2021/03/14 03:18:57;;;;;;;;;;;6.60;88.10;;;;;;5024147;28;20281;-71
2021/03/14 03:21:22;;;;;;;;;;;6.60;88.10;;;;;;5026297;28;19913;-70
2021/03/14 03:23:48;;;;;;;;;;;6.60;88.00;;;;;;5026592;28;19908;-71
2021/03/14 03:26:14;;;;;;;;;;;6.60;88.00;;;;;;5026289;28;19917;-71
2021/03/14 03:28:39;;;;;;;;;;;6.60;88.20;;;;;;5026474;28;20516;-71
2021/03/14 03:31:05;;;;;;;;;;;6.60;88.40;;;;;;5026164;28;19909;-71
2021/03/14 03:33:31;;;;;;;;;;;6.60;88.40;;;;;;5026119;28;20000;-71
2021/03/14 03:35:57;;;;;;;;;;;6.70;88.00;;;;;;5026038;28;20366;-71
2021/03/14 03:38:22;;;;;;;;;;;6.70;87.70;;;;;;5026065;28;19913;-70
2021/03/14 03:40:48;;;;;;;;;;;6.70;87.50;;;;;;5024315;28;19916;-70
2021/03/14 03:43:19;;;;;;;;;;;6.70;87.40;;;;;;5025743;28;19980;-71
2021/03/14 03:45:47;;;;;;;;;;;6.70;87.30;;;;;;5024662;28;19916;-72
2021/03/14 03:48:15;;;;;;;;;;;6.80;87.20;;;;;;5024097;28;19989;-70
2021/03/14 03:50:41;;;;;;;;;;;6.70;87.30;;;;;;5025709;28;20017;-70
2021/03/14 03:53:10;;;;;;;;;;;6.70;87.30;;;;;;5025590;28;19916;-70
2021/03/14 03:55:35;;;;;;;;;;;6.70;87.30;;;;;;5026142;28;19955;-70
2021/03/14 03:58:03;;;;;;;;;;;6.70;87.50;;;;;;5025493;28;19953;-70
2021/03/14 04:00:28;;;;;;;;;;;6.60;87.30;;;;;;5028930;28;19905;-71
2021/03/14 04:02:54;;;;;;;;;;;6.60;87.40;;;;;;5029241;28;19946;-70
2021/03/14 04:05:19;;;;;;;;;;;6.60;87.30;;;;;;5029392;28;19920;-71
2021/03/14 04:07:46;;;;;;;;;;;6.60;87.40;;;;;;5027824;28;19940;-70
2021/03/14 04:10:13;;;;;;;;;;;6.60;87.60;;;;;;5029661;28;19916;-68
2021/03/14 04:12:40;;;;;;;;;;;6.60;88.00;;;;;;5029250;28;20080;-71
2021/03/14 04:15:07;;;;;;;;;;;6.50;88.30;;;;;;5029263;28;19916;-70
2021/03/14 04:17:33;;;;;;;;;;;6.50;88.10;;;;;;5029303;28;19913;-71
2021/03/14 04:19:59;;;;;;;;;;;6.60;88.20;;;;;;5028467;28;20388;-70
2021/03/14 04:22:25;;;;;;;;;;;6.50;88.00;;;;;;5029258;28;19958;-71
2021/03/14 04:24:52;;;;;;;;;;;6.60;88.00;;;;;;5029054;28;20051;-71
2021/03/14 04:27:17;;;;;;;;;;;6.50;88.00;;;;;;5028832;28;20376;-71
2021/03/14 04:29:43;;;;;;;;;;;6.50;88.10;;;;;;5029105;28;19952;-71
2021/03/14 04:32:10;;;;;;;;;;;6.50;88.20;;;;;;5029236;28;20266;-70
2021/03/14 04:34:37;;;;;;;;;;;6.50;87.80;;;;;;5028287;28;20661;-70
2021/03/14 04:37:02;;;;;;;;;;;6.50;87.90;;;;;;5028847;28;19916;-70
2021/03/14 04:39:28;;;;;;;;;;;6.50;87.80;;;;;;5028508;28;19917;-71
2021/03/14 04:41:54;;;;;;;;;;;6.50;87.70;;;;;;5028691;28;20490;-70
2021/03/14 04:44:21;;;;;;;;;;;6.50;87.50;;;;;;5027402;28;19917;-71
2021/03/14 04:46:46;;;;;;;;;;;6.50;87.50;;;;;;5028451;28;19912;-70
2021/03/14 04:49:13;;;;;;;;;;;6.50;87.50;;;;;;5028197;28;20061;-71
2021/03/14 04:51:41;;;;;;;;;;;6.50;87.30;;;;;;5028353;28;19909;-70
2021/03/14 04:54:09;;;;;;;;;;;6.50;87.30;;;;;;5027556;28;19909;-71
2021/03/14 04:56:34;;;;;;;;;;;6.50;87.30;;;;;;5028583;28;20517;-70
2021/03/14 04:59:01;;;;;;;;;;;6.50;87.30;;;;;;5026765;28;19928;-70
2021/03/14 05:01:27;;;;;;;;;;;6.50;87.30;;;;;;5028718;28;19909;-70
2021/03/14 05:03:53;;;;;;;;;;;6.50;87.30;;;;;;5026712;28;20259;-70
2021/03/14 05:06:20;;;;;;;;;;;6.50;87.40;;;;;;5026904;28;19912;-71
2021/03/14 05:08:46;;;;;;;;;;;6.50;87.50;;;;;;5028413;28;20019;-70
2021/03/14 05:11:19;;;;;;;;;;;6.50;87.50;;;;;;5027536;28;19939;-71
2021/03/14 05:13:45;;;;;;;;;;;6.50;87.60;;;;;;5027723;28;20345;-71
2021/03/14 05:16:12;;;;;;;;;;;6.50;87.70;;;;;;5028244;28;20310;-70
2021/03/14 05:18:38;;;;;;;;;;;6.50;87.50;;;;;;5027194;28;19913;-70
2021/03/14 05:21:04;;;;;;;;;;;6.50;87.40;;;;;;5026595;28;19916;-70
2021/03/14 05:23:31;;;;;;;;;;;6.50;87.50;;;;;;5028000;28;19913;-71
2021/03/14 05:25:57;;;;;;;;;;;6.50;88.10;;;;;;5028056;28;19909;-70
2021/03/14 05:28:23;;;;;;;;;;;6.40;87.80;;;;;;5027856;28;20296;-70
2021/03/14 05:30:48;;;;;;;;;;;6.50;87.80;;;;;;5026156;28;19909;-71
2021/03/14 05:33:14;;;;;;;;;;;6.50;87.50;;;;;;5027356;28;19909;-70
2021/03/14 05:35:39;;;;;;;;;;;6.50;87.50;;;;;;5026467;28;19915;-70
2021/03/14 05:38:05;;;;;;;;;;;6.50;87.40;;;;;;5026240;28;19924;-69
2021/03/14 05:40:30;;;;;;;;;;;6.50;87.60;;;;;;5027800;28;19932;-70
2021/03/14 05:42:56;;;;;;;;;;;6.40;87.80;;;;;;5027693;28;19908;-70
2021/03/14 05:45:22;;;;;;;;;;;6.40;87.90;;;;;;5026041;28;19908;-71
2021/03/14 05:47:48;;;;;;;;;;;6.40;87.90;;;;;;5025726;28;19913;-70
2021/03/14 05:50:15;;;;;;;;;;;6.40;88.00;;;;;;5027112;28;20018;-70
2021/03/14 05:52:42;;;;;;;;;;;6.50;88.30;;;;;;5027515;28;19913;-70
2021/03/14 05:55:15;;;;;;;;;;;6.50;88.20;;;;;;5027038;28;19909;-71
2021/03/14 05:57:42;;;;;;;;;;;6.50;88.10;;;;;;5027213;28;20312;-70
2021/03/14 06:00:08;;;;;;;;;;;6.60;88.10;;;;;;5026857;28;20405;-69
2021/03/14 06:02:33;;;;;;;;;;;6.70;87.90;;;;;;5025475;28;19944;-71
2021/03/14 06:04:59;;;;;;;;;;;6.70;87.60;;;;;;5027241;28;19917;-70
2021/03/14 06:07:25;;;;;;;;;;;6.80;87.60;;;;;;5027033;28;20024;-70
2021/03/14 06:09:52;;;;;;;;;;;6.80;87.70;;;;;;5027030;28;19913;-70
2021/03/14 06:12:18;;;;;;;;;;;6.90;87.60;;;;;;5026728;28;19912;-70
2021/03/14 06:14:44;;;;;;;;;;;6.90;87.60;;;;;;5025877;28;19909;-70
2021/03/14 06:17:10;;;;;;;;;;;6.90;87.70;;;;;;5026516;28;20002;-70
2021/03/14 06:19:35;;;;;;;;;;;7.00;87.50;;;;;;5026952;28;19948;-69
2021/03/14 06:22:17;;;;;;;;;;;7.10;87.40;;;;;;5025188;28;19905;-70
2021/03/14 06:24:42;;;;;;;;;;;7.10;87.20;;;;;;5025728;28;20002;-70
2021/03/14 06:27:08;;;;;;;;;;;7.20;86.80;;;;;;5026676;28;19951;-70
2021/03/14 06:29:33;;;;;;;;;;;7.20;86.80;;;;;;5026815;28;19966;-70
2021/03/14 06:32:02;;;;;;;;;;;7.30;86.40;;;;;;5025896;28;19909;-69
2021/03/14 06:34:38;;;;;;;;;;;7.40;86.50;;;;;;5026882;28;19905;-70
2021/03/14 06:37:06;;;;;;;;;;;7.50;86.50;;;;;;5025275;28;19912;-70
2021/03/14 06:39:33;;;;;;;;;;;7.60;86.10;;;;;;5025246;28;20400;-70
2021/03/14 06:41:58;;;;;;;;;;;7.70;85.90;;;;;;5026667;28;20341;-70
2021/03/14 06:44:25;;;;;;;;;;;7.80;85.60;;;;;;5026631;28;20408;-70
2021/03/14 06:46:51;;;;;;;;;;;7.90;85.20;;;;;;5024361;28;19913;-69
2021/03/14 06:49:18;;;;;;;;;;;7.90;84.50;;;;;;5026413;28;19947;-70
2021/03/14 06:51:44;;;;;;;;;;;8.00;84.10;;;;;;5026742;28;20254;-70
2021/03/14 06:54:47;;;;;;;;;;;8.10;84.00;;;;;;5026130;28;19995;-70
2021/03/14 06:57:13;;;;;;;;;;;8.20;83.30;;;;;;5024955;28;19909;-70
2021/03/14 06:59:41;;;;;;;;;;;8.40;83.40;;;;;;5026389;28;19917;-71
2021/03/14 07:02:11;;;;;;;;;;;8.50;82.60;;;;;;5024897;28;19909;-70
2021/03/14 07:04:36;;;;;;;;;;;8.60;81.90;;;;;;5026409;28;19909;-70
2021/03/14 07:07:02;;;;;;;;;;;8.80;81.30;;;;;;5026380;28;19909;-70
2021/03/14 07:09:28;;;;;;;;;;;8.90;80.80;;;;;;5025936;28;19956;-70
2021/03/14 07:11:53;;;;;;;;;;;9.10;80.60;;;;;;5024962;28;20366;-70
2021/03/14 07:14:20;;;;;;;;;;;9.30;80.00;;;;;;5025945;28;19916;-71
2021/03/14 07:16:49;;;;;;;;;;;9.70;79.60;;;;;;5026141;28;19909;-70
2021/03/14 07:19:25;;;;;;;;;;;10.30;78.00;;;;;;5024904;28;19964;-71
2021/03/14 07:22:03;;;;;;;;;;;10.80;74.80;;;;;;5026346;28;20023;-70
2021/03/14 07:24:30;;;;;;;;;;;11.10;73.30;;;;;;5026366;28;19913;-70
2021/03/14 07:26:56;;;;;;;;;;;11.40;72.50;;;;;;5025910;28;19920;-71
2021/03/14 07:29:23;;;;;;;;;;;11.70;69.80;;;;;;5026450;28;19909;-71
2021/03/14 07:31:48;;;;;;;;;;;12.20;67.80;;;;;;5024078;28;19960;-71
2021/03/14 07:34:14;;;;;;;;;;;12.60;66.50;;;;;;5028962;28;19909;-71
2021/03/14 07:36:39;;;;;;;;;;;12.80;65.40;;;;;;5029917;28;19909;-70
2021/03/14 07:39:05;;;;;;;;;;;13.10;63.50;;;;;;5029061;28;19932;-71
2021/03/14 07:41:31;;;;;;;;;;;13.30;62.30;;;;;;5028935;28;19917;-70
2021/03/14 07:43:57;;;;;;;;;;;13.20;62.40;;;;;;5029840;28;19959;-70
2021/03/14 07:46:24;;;;;;;;;;;13.00;62.30;;;;;;5029052;28;19909;-70
2021/03/14 07:48:50;;;;;;;;;;;12.60;62.40;;;;;;5029829;28;19939;-70
2021/03/14 07:51:16;;;;;;;;;;;12.10;63.90;;;;;;5029614;28;19917;-69
2021/03/14 07:53:42;;;;;;;;;;;11.60;65.20;;;;;;5029861;28;19905;-71
2021/03/14 07:56:07;;;;;;;;;;;11.20;66.80;;;;;;5028594;28;19913;-70
2021/03/14 07:58:34;;;;;;;;;;;10.90;68.10;;;;;;5029625;28;19951;-70
2021/03/14 08:01:18;;;;;;;;;;;10.60;69.30;;;;;;5028802;28;19916;-71
2021/03/14 08:03:44;;;;;;;;;;;10.40;70.70;;;;;;5029698;28;19971;-70
2021/03/14 08:06:09;;;;;;;;;;;10.20;70.90;;;;;;5029115;28;19929;-70
2021/03/14 08:08:35;;;;;;;;;;;10.00;71.60;;;;;;5029530;28;20390;-71
2021/03/14 08:11:00;;;;;;;;;;;9.90;73.20;;;;;;5027718;28;19921;-69
2021/03/14 08:13:29;;;;;;;;;;;9.80;74.90;;;;;;5027792;28;19913;-70
2021/03/14 08:16:01;;;;;;;;;;;9.80;74.60;;;;;;5026950;28;20516;-70
2021/03/14 08:18:32;;;;;;;;;;;9.90;74.60;;;;;;5028761;28;20362;-71
2021/03/14 08:20:58;;;;;;;;;;;10.00;74.40;;;;;;5029099;28;19915;-70
2021/03/14 08:23:39;;;;;;;;;;;10.10;74.50;;;;;;5029296;28;19909;-71
2021/03/14 08:26:14;;;;;;;;;;;10.30;73.70;;;;;;5027376;28;20480;-70
2021/03/14 08:28:40;;;;;;;;;;;10.40;72.70;;;;;;5028976;28;19935;-71
2021/03/14 08:31:06;;;;;;;;;;;10.60;71.80;;;;;;5028571;28;19908;-71
2021/03/14 08:33:44;;;;;;;;;;;10.70;70.70;;;;;;5027494;28;20011;-70
2021/03/14 08:36:12;;;;;;;;;;;10.90;68.20;;;;;;5029159;28;19916;-71
2021/03/14 08:38:51;;;;;;;;;;;11.10;67.80;;;;;;5027559;28;19913;-69
2021/03/14 08:41:26;;;;;;;;;;;11.40;67.60;;;;;;5028905;28;19909;-71
2021/03/14 08:43:56;;;;;;;;;;;11.70;65.80;;;;;;5027448;28;20309;-70
2021/03/14 08:46:41;;;;;;;;;;;12.10;63.80;;;;;;5027364;28;20023;-71
2021/03/14 08:49:08;;;;;;;;;;;12.20;63.40;;;;;;5026601;28;19955;-70
2021/03/14 08:51:33;;;;;;;;;;;12.20;63.20;;;;;;5028176;28;19924;-70
2021/03/14 08:53:59;;;;;;;;;;;12.20;62.00;;;;;;5027271;28;19909;-69
2021/03/14 08:56:24;;;;;;;;;;;11.90;61.50;;;;;;5026643;28;19905;-70
2021/03/14 08:59:06;;;;;;;;;;;11.50;62.30;;;;;;5028261;28;20088;-70
2021/03/14 09:01:32;;;;;;;;;;;11.30;63.50;;;;;;5026406;28;20010;-70
2021/03/14 09:03:58;;;;;;;;;;;11.10;65.20;;;;;;5028389;28;20389;-70
2021/03/14 09:06:26;;;;;;;;;;;11.00;66.00;;;;;;5028161;28;19992;-70
2021/03/14 09:09:02;;;;;;;;;;;10.80;66.20;;;;;;5026860;28;19916;-71
2021/03/14 09:11:37;;;;;;;;;;;10.70;67.00;;;;;;5028570;28;19909;-69
2021/03/14 09:14:22;;;;;;;;;;;10.50;66.60;;;;;;5026985;28;19913;-70
2021/03/14 09:16:51;;;;;;;;;;;10.20;66.60;;;;;;5027804;28;19909;-70
2021/03/14 09:19:25;;;;;;;;;;;10.10;68.70;;;;;;5028113;28;19913;-70
2021/03/14 09:21:51;;;;;;;;;;;9.90;66.80;;;;;;5028295;28;19913;-71
2021/03/14 09:24:24;;;;;;;;;;;9.70;68.40;;;;;;5027780;28;19908;-71
2021/03/14 09:26:56;;;;;;;;;;;9.50;71.10;;;;;;5028244;28;20460;-71
2021/03/14 09:29:40;;;;;;;;;;;9.40;72.70;;;;;;5027894;28;19916;-71
2021/03/14 09:32:26;;;;;;;;;;;9.20;73.60;;;;;;5026007;28;19913;-70
2021/03/14 09:35:09;;;;;;;;;;;9.10;75.20;;;;;;5026240;28;19909;-71
2021/03/14 09:37:35;;;;;;;;;;;9.00;75.40;;;;;;5027832;28;19920;-71
2021/03/14 09:40:07;;;;;;;;;;;9.00;75.20;;;;;;5027521;28;19909;-70
2021/03/14 09:42:34;;;;;;;;;;;9.00;75.70;;;;;;5027656;28;20392;-71
2021/03/14 09:45:29;;;;;;;;;;;9.00;75.50;;;;;;5026784;28;19948;-70
2021/03/14 09:48:14;;;;;;;;;;;9.00;75.10;;;;;;5027094;28;20054;-70
2021/03/14 09:50:42;;;;;;;;;;;9.10;73.70;;;;;;5027679;28;19979;-71
2021/03/14 09:53:08;;;;;;;;;;;9.10;73.80;;;;;;5025615;28;19916;-71
2021/03/14 09:55:38;;;;;;;;;;;9.20;74.30;;;;;;5026295;28;20442;-70
2021/03/14 09:58:07;;;;;;;;;;;9.20;74.50;;;;;;5025434;28;19952;-71
2021/03/14 10:00:33;;;;;;;;;;;9.30;74.90;;;;;;5026571;28;19905;-70
2021/03/14 10:02:59;;;;;;;;;;;9.50;74.80;;;;;;5027276;28;19909;-70
2021/03/14 10:05:25;;;;;;;;;;;9.50;73.90;;;;;;5027438;28;20011;-71
2021/03/14 10:07:51;;;;;;;;;;;9.60;73.50;;;;;;5026935;28;20000;-71
2021/03/14 10:10:17;;;;;;;;;;;9.70;73.70;;;;;;5027040;28;20024;-71
2021/03/14 10:12:43;;;;;;;;;;;9.70;74.20;;;;;;5027493;28;20424;-70
2021/03/14 10:15:11;;;;;;;;;;;9.90;73.30;;;;;;5024882;28;19908;-71
2021/03/14 10:17:37;;;;;;;;;;;9.90;72.70;;;;;;5027194;28;19905;-71
2021/03/14 10:20:02;;;;;;;;;;;10.00;72.60;;;;;;5027148;28;20377;-70
2021/03/14 10:22:29;;;;;;;;;;;10.10;72.00;;;;;;5026722;28;19915;-70
2021/03/14 10:24:54;;;;;;;;;;;10.20;72.60;;;;;;5026878;28;19917;-70
2021/03/14 10:27:23;;;;;;;;;;;10.20;73.20;;;;;;5025622;28;19981;-71
2021/03/14 10:29:56;;;;;;;;;;;10.30;72.20;;;;;;5026369;28;20016;-70
2021/03/14 10:32:22;;;;;;;;;;;10.50;71.60;;;;;;5024892;28;19928;-71
2021/03/14 10:34:56;;;;;;;;;;;10.60;71.60;;;;;;5025632;28;19947;-71
2021/03/14 10:37:26;;;;;;;;;;;10.70;71.00;;;;;;5026475;28;19995;-71
2021/03/14 10:39:59;;;;;;;;;;;10.80;70.10;;;;;;5026581;28;19920;-71
2021/03/14 10:42:28;;;;;;;;;;;11.00;69.10;;;;;;5026723;28;20297;-71
2021/03/14 10:45:00;;;;;;;;;;;11.10;68.00;;;;;;5026318;28;19912;-70
2021/03/14 10:47:28;;;;;;;;;;;11.20;66.90;;;;;;5025404;28;19909;-69
2021/03/14 10:50:04;;;;;;;;;;;11.20;66.20;;;;;;5026351;28;19920;-70
2021/03/14 10:52:30;;;;;;;;;;;11.20;66.50;;;;;;5026367;28;19913;-70
2021/03/14 10:54:55;;;;;;;;;;;11.20;66.20;;;;;;5026285;28;20291;-70
2021/03/14 10:57:21;;;;;;;;;;;11.20;65.30;;;;;;5026392;28;20417;-70
2021/03/14 10:59:47;;;;;;;;;;;11.30;66.00;;;;;;5026220;28;19920;-69
2021/03/14 11:02:19;;;;;;;;;;;11.50;65.30;;;;;;5026200;28;19952;-71
2021/03/14 11:04:54;;;;;;;;;;;11.50;65.60;;;;;;5026598;28;19952;-69
2021/03/14 11:07:28;;;;;;;;;;;11.60;65.10;;;;;;5026532;28;19931;-69
2021/03/14 11:10:09;;;;;;;;;;;11.60;64.80;;;;;;5029162;28;19915;-70
2021/03/14 11:12:38;;;;;;;;;;;11.70;65.10;;;;;;5028816;28;20333;-69
2021/03/14 11:15:04;;;;;;;;;;;11.80;63.50;;;;;;5029620;28;19908;-71
2021/03/14 11:17:31;;;;;;;;;;;12.00;61.80;;;;;;5030140;28;20356;-70
2021/03/14 11:19:56;;;;;;;;;;;12.00;60.90;;;;;;5029396;28;19932;-70
2021/03/14 11:22:22;;;;;;;;;;;12.00;60.00;;;;;;5028990;28;20369;-70
2021/03/14 11:24:49;;;;;;;;;;;12.10;59.30;;;;;;5029889;28;20000;-70
2021/03/14 11:27:15;;;;;;;;;;;12.00;60.20;;;;;;5029483;28;19909;-69
2021/03/14 11:29:41;;;;;;;;;;;11.90;60.10;;;;;;5029463;28;19913;-70
2021/03/14 11:32:11;;;;;;;;;;;11.90;60.00;;;;;;5030037;28;19909;-70
2021/03/14 11:34:37;;;;;;;;;;;11.90;60.40;;;;;;5028620;28;20273;-70
2021/03/14 11:37:03;;;;;;;;;;;11.90;60.20;;;;;;5028947;28;19917;-70
2021/03/14 11:39:28;;;;;;;;;;;11.90;59.80;;;;;;5029817;28;19924;-69
2021/03/14 11:41:54;;;;;;;;;;;12.00;58.50;;;;;;5029805;28;20023;-70
2021/03/14 11:44:19;;;;;;;;;;;12.00;58.10;;;;;;5028391;28;19905;-69
2021/03/14 11:46:45;;;;;;;;;;;12.00;57.50;;;;;;5030153;28;19909;-69
2021/03/14 11:49:11;;;;;;;;;;;12.10;57.20;;;;;;5029068;28;19913;-70
2021/03/14 11:51:37;;;;;;;;;;;12.10;57.30;;;;;;5030379;28;19909;-70
2021/03/14 11:54:02;;;;;;;;;;;12.10;56.80;;;;;;5029875;28;19928;-70
2021/03/14 11:56:28;;;;;;;;;;;12.30;58.00;;;;;;5029378;28;20408;-70
2021/03/14 11:58:53;;;;;;;;;;;12.40;57.30;;;;;;5029352;28;19916;-70
2021/03/14 12:01:19;;;;;;;;;;;12.50;53.90;;;;;;5029443;28;19909;-70
2021/03/14 12:03:45;;;;;;;;;;;12.60;55.30;;;;;;5029606;28;19999;-70
2021/03/14 12:06:11;;;;;;;;;;;12.60;55.10;;;;;;5029392;28;19935;-71
2021/03/14 12:08:37;;;;;;;;;;;12.60;55.60;;;;;;5028190;28;20003;-70
2021/03/14 12:11:05;;;;;;;;;;;12.70;53.50;;;;;;5029341;28;20445;-70
2021/03/14 12:13:31;;;;;;;;;;;12.70;53.40;;;;;;5028623;28;20750;-70
2021/03/14 12:15:57;;;;;;;;;;;12.70;52.20;;;;;;5029297;28;19909;-70
2021/03/14 12:18:22;;;;;;;;;;;12.70;52.60;;;;;;5029630;28;19924;-70
2021/03/14 12:20:48;;;;;;;;;;;12.60;53.80;;;;;;5028452;28;19920;-70
2021/03/14 12:23:13;;;;;;;;;;;12.60;56.00;;;;;;5027649;28;19955;-71
2021/03/14 12:25:39;;;;;;;;;;;12.70;54.80;;;;;;5027551;28;20340;-70
2021/03/14 12:28:04;;;;;;;;;;;12.90;54.20;;;;;;5027555;28;19952;-70
2021/03/14 12:30:30;;;;;;;;;;;13.10;52.60;;;;;;5027946;28;19905;-70
2021/03/14 12:32:55;;;;;;;;;;;13.20;52.10;;;;;;5028558;28;19909;-70
2021/03/14 12:35:22;;;;;;;;;;;13.30;51.60;;;;;;5029168;28;19935;-71
2021/03/14 12:37:47;;;;;;;;;;;13.30;51.20;;;;;;5028926;28;19905;-70
2021/03/14 12:40:13;;;;;;;;;;;13.40;49.70;;;;;;5028877;28;19920;-71
2021/03/14 12:42:39;;;;;;;;;;;13.50;50.10;;;;;;5028561;28;19951;-71
2021/03/14 12:45:05;;;;;;;;;;;13.40;49.30;;;;;;5028322;28;19909;-70
2021/03/14 12:47:30;;;;;;;;;;;13.30;49.10;;;;;;5027050;28;19999;-70
2021/03/14 12:49:58;;;;;;;;;;;13.10;50.00;;;;;;5028311;28;19921;-71
2021/03/14 12:52:24;;;;;;;;;;;12.90;51.00;;;;;;5028675;28;20383;-70
2021/03/14 12:54:49;;;;;;;;;;;12.80;51.40;;;;;;5027253;28;20000;-70
2021/03/14 12:57:15;;;;;;;;;;;12.60;51.20;;;;;;5028360;28;19905;-70
2021/03/14 12:59:40;;;;;;;;;;;12.50;51.30;;;;;;5026467;28;20367;-70
2021/03/14 13:02:06;;;;;;;;;;;12.40;51.50;;;;;;5027608;28;20401;-70
2021/03/14 13:04:31;;;;;;;;;;;12.20;51.70;;;;;;5028761;28;19915;-70
2021/03/14 13:06:57;;;;;;;;;;;12.00;51.90;;;;;;5028084;28;19939;-70
2021/03/14 13:09:22;;;;;;;;;;;12.00;52.70;;;;;;5028131;28;20381;-71
2021/03/14 13:11:48;;;;;;;;;;;12.10;52.30;;;;;;5028050;28;19963;-72
2021/03/14 13:14:13;;;;;;;;;;;12.10;51.80;;;;;;5027754;28;19909;-71
2021/03/14 13:16:39;;;;;;;;;;;12.00;51.60;;;;;;5028238;28;19935;-70
2021/03/14 13:19:04;;;;;;;;;;;11.90;52.30;;;;;;5027586;28;20003;-70
2021/03/14 13:21:30;;;;;;;;;;;11.80;53.00;;;;;;5027387;28;19905;-70
2021/03/14 13:23:55;;;;;;;;;;;11.80;53.10;;;;;;5027019;28;19909;-71
2021/03/14 13:26:21;;;;;;;;;;;11.90;53.00;;;;;;5027493;28;19940;-70
2021/03/14 13:28:46;;;;;;;;;;;12.00;52.40;;;;;;5027921;28;20004;-70
2021/03/14 13:31:12;;;;;;;;;;;12.10;52.20;;;;;;5027562;28;20312;-71
2021/03/14 13:33:37;;;;;;;;;;;12.30;51.60;;;;;;5027672;28;19909;-71
2021/03/14 13:36:03;;;;;;;;;;;12.40;51.00;;;;;;5026615;28;20147;-70
2021/03/14 13:38:29;;;;;;;;;;;12.40;50.00;;;;;;5025530;28;19943;-70
2021/03/14 13:40:54;;;;;;;;;;;12.50;49.90;;;;;;5027180;28;19921;-69
2021/03/14 13:46:21;;;;;;;;;;;12.70;48.80;;;;;;5785944;23;19928;-71
2021/03/14 13:48:47;;;;;;;;;;;12.70;48.50;;;;;;4969003;28;20004;-66
2021/03/14 13:51:13;;;;;;;;;;;12.90;47.60;;;;;;4971671;28;20374;-68
2021/03/14 14:06:29;;;;;;;4.73;0.93;;;13.00;47.60;;;;;;5106754;27;20360;-68
2021/03/14 14:08:55;;;;;;;;;;;13.60;45.50;;;;;;5107189;28;20027;-68
2021/03/14 14:11:21;;;;;;;2.03;0.50;;;13.60;45.00;;;;;;5106872;28;19912;-69
2021/03/14 14:13:47;;;;;;;;;;;13.60;45.80;;;;;;5107223;28;20023;-69
2021/03/14 14:16:13;;;;;;;0.93;0.40;;;13.50;44.50;;;;;;5122726;28;19911;-68
2021/03/14 14:18:38;;;;;;;;;;;13.40;45.40;;;;;;5106865;28;20053;-67
2021/03/14 14:21:04;;;;;;;5.25;2.15;;;13.40;45.70;;;;;;5103500;28;20371;-69
2021/03/14 14:23:29;;;;;;;;;;;13.40;44.30;;;;;;5106057;28;20032;-68
2021/03/14 14:25:55;;;;;;;5.57;1.45;;;13.30;43.40;;;;;;5106312;28;19916;-69
2021/03/14 14:28:21;;;;;;;;;;;13.00;42.70;;;;;;5106788;28;20477;-67
2021/03/14 14:30:47;;;;;;;12.05;4.03;;;12.80;43.40;;;;;;5106448;28;20379;-68
2021/03/14 14:33:12;;;;;;;;;;;12.50;44.20;;;;;;5106734;28;20487;-68
2021/03/14 14:35:38;;;;;;;7.35;2.97;;;12.20;44.90;;;;;;5121171;27;19916;-69
2021/03/14 14:38:04;;;;;;;;;;;12.20;45.40;;;;;;5105294;28;20036;-67